Aérodrome :







RETROUVEZ-NOUS SUR...

 
LOGIN :

S'inscrire | Disclaimer

   EN    FR    IT 

 









Légende :    VFR   VFR Marginal   IFR   IFR Intensif   IFR Très Intensif
Visi : 
Plafond : 
>= 8 km
>= 3000ft
5 à 8 km
1000 à 3000 ft
1500m à 5 km
500 à 1000 ft
800 à 1500m
200 à 500 ft
< 800m
< 200 ft
Symboles :   Orages  Brouillard  Fortes neiges  Fortes précipitations  Vent > 20 kt






- Altitude de l'aérodrome : 403 ft
- Code IATA : YKG


CYAS - Kangirsuk

DERNIER METAR :
  • 131500Z 27013KT 10SM -SN SCT007 BKN180 M13/M15 A2987 RMK ST4CI2 SLP129

METARs EXPIRÉS :
  • 131400Z 29013G19KT 8SM -SN BKN005 M13/M15 A2987 RMK ST6 SLP130
  • 131300Z 29012G20KT 8SM -SN BKN004 M14/M16 A2988 RMK ST7 SNOW COVER TRACE LOOSE SLP135

TAF TAF CYAS
Valide du 13 à 15h jusqu'au 13 à 22h UTC


131438Z 1315/1322 29012G22KT 5SM -SN BKN004
TEMPO 1315/1322 P6SM NSW SCT004 RMK NXT FCST WILL BE ISSUED AT 141445Z



MET'MAP, la Météo Aéronautique d'un coup d'oeil ! - Copyright ORBIFLY Décembre 2007 - Disclaimer

ORBIFLY MET'MAP TEAM :

Programmation & Développement : Alexandra Zaïnal
Conception & Développement : Baudouin d'Aumeries
Co-Programmation & Développement : Marc-Olivier Méhu
Soutien technique & logistique : Manuel Goepfert

Contact : metmap@orbifly.com




SOURCES & CREDITS :

   NOAA